• Join FlightAware (Why Join?)
  • Login
  • US Flag 
10:41AM EDT


 

Airport Tracker/Info


-or-


 

Live Flight TrackerFlight Track Log ✈ N102WY ✈ 02-Nov-2013 ✈ KCPR - KRKS

Flight Track Log - Related Links

Times and Time Zones

All times are in EDT time to prevent confusion due to time zone crossing. See the N102WY flight status page for this flight to view local times or setup timezone preferences in your user account.

Time Position Orientation Groundspeed Altitude Reporting Facility
EDT Latitude Longitude Course Direction KTS MPH feet Rate Location/Type
06:37PM 42.8719 -106.5058 237° Southwest 176 203 9,200  Level Denver Center
06:38PM 42.8425 -106.5667 237° Southwest 205 236 11,300 2,160 Climbing Denver Center
06:39PM 42.8061 -106.6408 236° Southwest 239 275 13,700 2,640 Climbing Denver Center
06:40PM 42.7606 -106.7372 237° Southwest 273 314 16,800 2,880 Climbing Denver Center
06:41PM 42.7200 -106.8200 236° Southwest 274 315 19,700 2,700 Climbing Denver Center
06:42PM 42.6747 -106.9156 237° Southwest 272 313 22,400 2,220 Climbing Denver Center
06:43PM 42.6328 -107.0011 236° Southwest 284 327 24,300 1,980 Climbing Denver Center
06:44PM 42.5878 -107.0947 237° Southwest 294 338 26,500 2,340 Climbing Denver Center
06:45PM 42.5372 -107.1978 236° Southwest 294 338 29,200 2,400 Climbing Salt Lake Center
06:46PM 42.4964 -107.2833 237° Southwest 285 328 31,500 2,220 Climbing Salt Lake Center
06:47PM 42.4458 -107.3794 235° Southwest 281 323 33,800 1,980 Climbing Salt Lake Center
06:48PM 42.4031 -107.4608 235° Southwest 276 318 35,600 1,080 Climbing Salt Lake Center
06:49PM 42.3592 -107.5458 235° Southwest 287 330 36,000 180 Climbing Salt Lake Center
06:51PM 42.3039 -107.6500 234° Southwest 304 350 36,000  Level Salt Lake Center
06:52PM 42.2567 -107.7408 235° Southwest 308 354 36,000  Level Salt Lake Center
06:53PM 42.1992 -107.8444 233° Southwest 308 354 36,000  Level Salt Lake Center
06:54PM 42.1519 -107.9344 235° Southwest 308 354 36,000  Level Salt Lake Center
06:55PM 42.1044 -108.0225 234° Southwest 305 351 36,000 -300 Level Salt Lake Center
06:56PM 42.0494 -108.1319 236° Southwest 314 361 35,500 -1,080 Descending Salt Lake Center
06:57PM 42.0011 -108.2231 234° Southwest 314 361 33,800 -2,220 Descending Salt Lake Center
06:58PM 41.9453 -108.3275 234° Southwest 310 357 31,000 -2,820 Descending Salt Lake Center
06:59PM 41.8953 -108.4178 233° Southwest 313 360 28,100 -2,940 Descending Salt Lake Center
07:00PM 41.8422 -108.5122 233° Southwest 326 375 25,100 -3,300 Descending Salt Lake Center
07:01PM 41.7850 -108.6186 234° Southwest 318 366 21,500 -3,540 Descending Salt Lake Center
07:02PM 41.7389 -108.7042 234° Southwest 301 346 17,900 -3,480 Descending Salt Lake Center
07:03PM 41.6956 -108.7839 234° Southwest 284 327 14,400 -3,480 Descending Salt Lake Center